Terminal Aerodrome Forecast
Issued by NWS New Orleans/Baton Rouge, LA

Home | Current Version | Previous Version | Text Only | Print | Product List | Glossary On
Versions: 1 2 3 4 5 6 7 8 9 10 11 12
000
FTUS44 KLIX 261734
TAFBTR
TAF
KBTR 261734Z 2618/2718 00000KT P6SM VCSH SCT022 BKN040
      TEMPO 2618/2621 BKN022
     FM262100 09004KT P6SM BKN045 BKN200
     FM270000 VRB03KT P6SM SCT250
      TEMPO 2710/2713 2SM BR SCT010
     FM271400 06004KT P6SM SCT030=

USA.gov is the U.S. government's official web portal to all federal, state and local government web resources and services.